createdAt,value
2019-01-02T00:00:47.271Z,34.07
2019-01-02T00:03:13.568Z,29.73
2019-01-02T00:05:41.625Z,31.87
2019-01-02T00:08:07.879Z,30.53
2019-01-02T00:10:35.984Z,33.33
2019-01-02T00:15:49.916Z,32.83
2019-01-02T00:18:16.266Z,33.77
2019-01-02T00:20:42.424Z,32.13
2019-01-02T00:23:10.510Z,32.67
2019-01-02T00:25:36.867Z,34.53
2019-01-02T00:28:04.923Z,32.43
2019-01-02T00:30:31.105Z,30.67
2019-01-02T00:32:59.172Z,30.60
2019-01-02T00:35:25.323Z,31.20
2019-01-02T00:37:53.424Z,31.03
2019-01-02T00:40:19.568Z,30.23
2019-01-02T00:42:45.920Z,32.83
2019-01-02T00:45:12.103Z,34.07
2019-01-02T00:47:40.155Z,36.67
2019-01-02T00:50:26.195Z,36.03
2019-01-02T00:52:52.354Z,38.97
2019-01-02T00:55:18.508Z,34.73
2019-01-02T00:57:44.692Z,33.60
2019-01-02T01:00:30.729Z,40.07
2019-01-02T01:02:56.916Z,35.20
2019-01-02T01:05:23.070Z,36.13
2019-01-02T01:07:49.227Z,36.13
2019-01-02T01:10:56.821Z,36.57
2019-01-02T01:13:22.983Z,36.73
2019-01-02T01:15:51.039Z,36.30
2019-01-02T01:18:17.338Z,38.60
2019-01-02T01:20:45.395Z,41.30
2019-01-02T01:23:11.551Z,44.63
2019-01-02T01:25:39.689Z,44.50
2019-01-02T01:28:05.843Z,42.97
2019-01-02T01:30:31.998Z,40.47
2019-01-02T01:33:00.189Z,35.17
2019-01-02T01:35:26.344Z,32.47
2019-01-02T01:37:54.505Z,33.17
2019-01-02T01:40:20.715Z,31.47
2019-01-02T01:42:46.873Z,34.50
2019-01-02T01:45:13.247Z,34.90
2019-01-02T01:47:39.426Z,34.77
2019-01-02T01:53:07.993Z,35.77
2019-01-02T01:55:34.139Z,33.40
2019-01-02T01:58:00.289Z,35.73
2019-01-02T02:00:26.489Z,35.27
2019-01-02T02:02:52.663Z,32.10
2019-01-02T02:05:20.715Z,29.47
2019-01-02T02:07:46.897Z,24.50
2019-01-02T02:10:15.155Z,27.07
2019-01-02T02:12:41.314Z,24.83
2019-01-02T02:15:48.951Z,25.20
2019-01-02T02:18:15.116Z,20.93
2019-01-02T02:20:43.176Z,19.63
2019-01-02T02:23:09.359Z,17.30
2019-01-02T02:25:37.413Z,18.17
2019-01-02T02:28:03.580Z,18.37
2019-01-02T02:30:29.977Z,18.00
2019-01-02T02:35:48.376Z,17.03
2019-01-02T02:38:16.432Z,16.23
2019-01-02T02:40:44.492Z,14.73
2019-01-02T02:43:10.779Z,16.10
2019-01-02T02:45:36.935Z,16.23
2019-01-02T02:48:04.990Z,17.37
2019-01-02T02:50:33.081Z,15.63
2019-01-02T02:53:01.254Z,15.53
2019-01-02T02:55:27.603Z,14.77
2019-01-02T02:57:53.801Z,16.60
2019-01-02T03:00:19.959Z,16.47
2019-01-02T03:02:46.117Z,13.93
2019-01-02T03:05:53.714Z,15.80
2019-01-02T03:08:19.874Z,14.13
2019-01-02T03:10:47.928Z,13.93
2019-01-02T03:13:16.027Z,15.60
2019-01-02T03:15:44.188Z,15.10
2019-01-02T03:18:10.540Z,15.50
2019-01-02T03:20:36.729Z,16.33
2019-01-02T03:23:02.892Z,15.50
2019-01-02T03:25:30.956Z,16.10
2019-01-02T03:27:59.093Z,16.43
2019-01-02T03:30:27.152Z,15.93
2019-01-02T03:32:55.212Z,16.60
2019-01-02T03:35:23.436Z,15.43
2019-01-02T03:37:49.595Z,15.50
2019-01-02T03:40:15.755Z,15.10
2019-01-02T03:42:41.943Z,15.93
2019-01-02T03:51:22.920Z,17.07
2019-01-02T03:53:49.081Z,20.53
2019-01-02T03:56:15.232Z,20.37
2019-01-02T03:58:41.417Z,36.13
2019-01-02T04:01:07.577Z,39.90
2019-01-02T04:03:33.727Z,36.10
2019-01-02T04:05:59.917Z,20.97
2019-01-02T04:09:07.510Z,20.20
2019-01-02T04:11:33.711Z,23.23
2019-01-02T04:13:59.868Z,19.63
2019-01-02T04:16:26.023Z,19.30
2019-01-02T04:18:52.210Z,26.13
2019-01-02T04:21:18.471Z,20.80
2019-01-02T04:23:44.615Z,17.87
2019-01-02T04:26:10.904Z,17.20
2019-01-02T04:28:37.108Z,23.30
2019-01-02T04:31:03.255Z,26.63
2019-01-02T04:36:23.018Z,15.17
2019-01-02T04:38:49.176Z,17.23
2019-01-02T04:41:15.332Z,16.03
2019-01-02T04:43:41.521Z,16.63
2019-01-02T04:46:07.789Z,14.97
2019-01-02T04:48:33.944Z,17.07
2019-01-02T04:51:00.136Z,17.23
2019-01-02T04:53:26.287Z,24.07
2019-01-02T04:55:52.446Z,23.87
2019-01-02T04:58:18.636Z,26.23
2019-01-02T05:00:44.795Z,26.73
2019-01-02T05:03:10.952Z,37.63
2019-01-02T05:05:37.146Z,41.17
2019-01-02T05:08:03.302Z,41.77
2019-01-02T05:10:29.451Z,40.83
2019-01-02T05:12:55.635Z,39.27
2019-01-02T05:15:21.783Z,27.53
2019-01-02T05:17:47.944Z,20.93
2019-01-02T05:20:14.135Z,25.57
2019-01-02T05:22:40.288Z,25.33
2019-01-02T05:25:47.871Z,25.23
2019-01-02T05:28:14.025Z,27.00
2019-01-02T05:30:40.189Z,20.57
2019-01-02T05:33:06.377Z,18.43
2019-01-02T05:35:32.532Z,15.87
2019-01-02T05:37:58.692Z,16.67
2019-01-02T05:40:24.885Z,16.90
2019-01-02T05:42:51.037Z,18.03
2019-01-02T05:45:17.194Z,24.07
2019-01-02T05:47:43.376Z,26.20
2019-01-02T05:50:09.537Z,16.60
2019-01-02T05:52:35.788Z,22.93
2019-01-02T05:55:01.981Z,19.33
2019-01-02T05:57:28.136Z,27.03
2019-01-02T05:59:54.294Z,31.67
2019-01-02T06:02:20.606Z,41.60
2019-01-02T06:04:46.767Z,38.93
2019-01-02T06:07:12.919Z,38.27
2019-01-02T06:09:39.107Z,41.13
2019-01-02T06:12:05.271Z,40.70
2019-01-02T06:14:31.425Z,38.93
2019-01-02T06:16:57.610Z,49.63
2019-01-02T06:19:23.769Z,65.80
2019-01-02T06:21:49.955Z,46.20
2019-01-02T06:24:16.139Z,41.10
2019-01-02T06:26:42.399Z,48.80
2019-01-02T06:29:08.562Z,50.83
2019-01-02T06:31:34.919Z,53.27
2019-01-02T06:34:01.097Z,45.50
2019-01-02T06:36:27.351Z,41.57
2019-01-02T06:38:53.540Z,38.93
2019-01-02T06:41:19.692Z,50.03
2019-01-02T06:43:45.853Z,43.70
2019-01-02T06:46:12.063Z,43.07
2019-01-02T06:48:38.217Z,45.93
2019-01-02T06:51:04.366Z,48.70
2019-01-02T06:53:30.544Z,47.27
2019-01-02T06:55:56.798Z,44.70
2019-01-02T06:58:22.955Z,46.73
2019-01-02T07:01:30.557Z,44.83
2019-01-02T07:03:56.712Z,43.57
2019-01-02T07:06:22.967Z,46.30
2019-01-02T07:08:49.166Z,29.73
2019-01-02T07:11:15.329Z,26.97
2019-01-02T07:13:41.480Z,39.80
2019-01-02T07:16:07.667Z,34.77
2019-01-02T07:18:33.820Z,34.23
2019-01-02T07:20:59.977Z,36.13
2019-01-02T07:23:26.279Z,32.97
2019-01-02T07:25:52.567Z,39.90
2019-01-02T07:28:18.713Z,33.60
2019-01-02T07:30:45.031Z,32.30
2019-01-02T07:33:11.233Z,39.77
2019-01-02T07:36:18.826Z,45.13
2019-01-02T07:45:39.179Z,56.60
2019-01-02T07:54:46.304Z,61.83
2019-01-02T07:57:51.965Z,58.60
2019-01-02T08:00:59.561Z,54.37
2019-01-02T08:07:06.056Z,55.77
2019-01-02T08:10:11.821Z,43.60
2019-01-02T08:13:19.439Z,20.40
2019-01-02T08:19:25.902Z,13.97
2019-01-02T08:28:33.504Z,10.87
2019-01-02T08:31:39.275Z,23.47
2019-01-02T08:34:45.078Z,13.47
2019-01-02T08:47:08.104Z,8.90
2019-01-02T08:50:13.874Z,21.13
2019-01-02T08:53:19.722Z,21.23
2019-01-02T08:59:39.080Z,21.97
2019-01-02T09:02:44.744Z,27.93
2019-01-02T09:05:52.338Z,12.17
2019-01-02T09:24:14.736Z,18.40
2019-01-02T09:27:15.995Z,8.20
2019-01-02T09:30:21.785Z,16.83
2019-01-02T09:45:31.723Z,28.80
2019-01-02T09:48:37.503Z,31.73
2019-01-02T09:51:43.171Z,16.97
2019-01-02T09:54:48.824Z,16.50
2019-01-02T09:57:54.617Z,16.23
2019-01-02T10:04:13.989Z,14.40
2019-01-02T10:07:19.653Z,9.67
2019-01-02T10:10:25.341Z,13.27
2019-01-02T10:22:46.197Z,16.00
2019-01-02T10:25:51.996Z,7.07
2019-01-02T10:28:59.597Z,7.90
2019-01-02T10:35:19.470Z,12.60
2019-01-02T10:38:25.350Z,11.83
2019-01-02T10:41:34.005Z,10.60
2019-01-02T10:50:54.255Z,13.47
2019-01-02T10:57:00.749Z,12.53
2019-01-02T11:06:08.411Z,15.77
2019-01-02T11:12:41.374Z,15.10
2019-01-02T11:15:47.123Z,20.50
2019-01-02T11:18:54.718Z,14.87
2019-01-02T11:25:07.208Z,14.67
2019-01-02T11:31:26.307Z,17.80
2019-01-02T11:34:32.094Z,20.20
2019-01-02T11:37:38.021Z,15.87
2019-01-02T11:40:43.688Z,13.03
2019-01-02T11:43:49.954Z,9.00
2019-01-02T11:46:16.112Z,10.37
2019-01-02T11:48:42.381Z,7.40
2019-01-02T11:51:08.564Z,6.07
2019-01-02T11:53:34.746Z,6.33
2019-01-02T11:56:01.029Z,5.10
2019-01-02T11:58:27.342Z,7.47
2019-01-02T12:00:53.491Z,5.97
2019-01-02T12:03:39.565Z,7.00
2019-01-02T12:06:05.847Z,7.20
2019-01-02T12:08:33.546Z,8.30
2019-01-02T12:10:59.743Z,6.53
2019-01-02T12:13:26.009Z,5.50
2019-01-02T12:15:52.179Z,3.20
2019-01-02T12:18:18.363Z,5.10
2019-01-02T12:20:44.516Z,5.93
2019-01-02T12:23:10.700Z,6.83
2019-01-02T12:25:36.886Z,6.73
2019-01-02T12:28:03.057Z,4.73
2019-01-02T12:30:29.415Z,7.40
2019-01-02T12:32:55.601Z,5.50
2019-01-02T12:35:21.769Z,7.07
2019-01-02T12:37:47.931Z,6.97
2019-01-02T12:40:14.118Z,7.60
2019-01-02T12:42:40.272Z,8.70
2019-01-02T12:45:06.705Z,7.43
2019-01-02T12:47:32.896Z,5.40
2019-01-02T12:49:59.057Z,6.03
2019-01-02T12:52:25.319Z,5.60
2019-01-02T12:54:51.550Z,6.00
2019-01-02T12:57:17.705Z,7.77
2019-01-02T12:59:43.862Z,7.63
2019-01-02T13:02:49.648Z,7.53
2019-01-02T13:05:55.300Z,8.10
2019-01-02T13:09:02.917Z,14.63
2019-01-02T13:15:15.352Z,11.00
2019-01-02T13:21:34.755Z,12.90
2019-01-02T13:30:48.093Z,7.83
2019-01-02T13:33:53.888Z,9.97
2019-01-02T13:37:01.500Z,6.97
2019-01-02T13:51:31.435Z,7.67
2019-01-02T13:53:57.603Z,9.43
2019-01-02T13:56:23.765Z,8.60
2019-01-02T13:58:50.067Z,9.33
2019-01-02T14:01:16.248Z,8.23
2019-01-02T14:06:36.685Z,5.40
2019-01-02T14:12:16.698Z,8.87
2019-01-02T14:14:42.856Z,10.70
2019-01-02T14:17:09.081Z,8.90
2019-01-02T14:19:35.337Z,10.03
2019-01-02T14:22:01.598Z,8.43
2019-01-02T14:24:27.856Z,9.63
2019-01-02T14:26:54.356Z,6.10
2019-01-02T14:29:20.638Z,6.47
2019-01-02T14:31:46.799Z,7.57
2019-01-02T14:34:13.017Z,6.37
2019-01-02T14:36:39.131Z,8.87
2019-01-02T14:42:06.055Z,10.10
2019-01-02T14:44:32.208Z,9.27
2019-01-02T14:46:58.363Z,9.47
2019-01-02T14:49:24.556Z,7.43
2019-01-02T14:51:50.709Z,8.40
2019-01-02T14:54:16.861Z,9.27
2019-01-02T14:56:43.044Z,6.73
2019-01-02T14:59:09.207Z,14.10
2019-01-02T15:01:35.372Z,11.60
2019-01-02T15:04:01.565Z,12.13
2019-01-02T15:06:27.725Z,18.40
2019-01-02T15:08:53.884Z,34.20
2019-01-02T15:11:20.070Z,46.50
2019-01-02T15:13:46.222Z,15.43
2019-01-02T15:16:12.389Z,10.30
2019-01-02T15:18:38.580Z,12.30
2019-01-02T15:21:04.729Z,14.33
2019-01-02T15:23:30.883Z,13.93
2019-01-02T15:25:57.080Z,24.70
2019-01-02T15:28:23.346Z,17.87
2019-01-02T15:30:49.504Z,12.93
2019-01-02T15:33:15.690Z,10.97
2019-01-02T15:35:41.846Z,13.03
2019-01-02T15:38:08.005Z,10.67
2019-01-02T15:40:34.192Z,12.93
2019-01-02T15:43:00.351Z,11.63
2019-01-02T15:45:26.716Z,13.53
2019-01-02T15:50:26.853Z,11.60
2019-01-02T15:52:52.980Z,12.20
2019-01-02T15:55:19.239Z,12.20
2019-01-02T15:57:45.534Z,9.37
2019-01-02T16:00:11.824Z,11.97
2019-01-02T16:02:37.973Z,14.93
2019-01-02T16:05:45.569Z,12.73
2019-01-02T16:08:11.827Z,7.21
2019-01-02T16:10:37.989Z,9.77
2019-01-02T16:13:04.251Z,12.13
2019-01-02T16:15:31.191Z,15.07
2019-01-02T16:17:57.915Z,11.07
2019-01-02T16:20:24.569Z,11.70
2019-01-02T16:22:51.157Z,12.13
2019-01-02T16:25:17.797Z,10.83
2019-01-02T16:27:44.097Z,12.13
2019-01-02T16:30:10.358Z,9.70
2019-01-02T16:32:36.727Z,12.87
2019-01-02T16:35:03.121Z,11.53
2019-01-02T16:37:29.279Z,12.97
2019-01-02T16:39:55.427Z,14.33
2019-01-02T16:42:21.607Z,12.47
2019-01-02T16:44:47.775Z,23.70
2019-01-02T16:47:13.937Z,22.13
2019-01-02T16:49:40.130Z,19.10
2019-01-02T16:52:06.288Z,9.13
2019-01-02T16:54:32.581Z,7.50
2019-01-02T16:56:58.773Z,11.53
2019-01-02T16:59:24.933Z,12.53
2019-01-02T17:01:51.092Z,6.13
2019-01-02T17:04:17.299Z,15.47
2019-01-02T17:06:43.563Z,8.90
2019-01-02T17:09:09.840Z,9.23
2019-01-02T17:11:36.027Z,13.40
2019-01-02T17:14:02.180Z,12.20
2019-01-02T17:16:28.336Z,8.20
2019-01-02T17:18:54.533Z,16.53
2019-01-02T17:21:20.807Z,17.10
2019-01-02T17:23:46.973Z,10.83
2019-01-02T17:26:13.280Z,13.43
2019-01-02T17:28:39.534Z,18.10
2019-01-02T17:31:05.789Z,17.57
2019-01-02T17:33:32.083Z,23.90
2019-01-02T17:35:58.240Z,18.97
2019-01-02T17:38:24.397Z,9.23
2019-01-02T17:43:50.030Z,14.00
2019-01-02T17:46:16.203Z,6.60
2019-01-02T17:48:42.360Z,15.00
2019-01-02T17:51:08.564Z,11.22
2019-01-02T17:53:34.838Z,24.33
2019-01-02T17:56:01.006Z,6.87
2019-01-02T17:58:27.295Z,6.87
2019-01-02T18:00:53.462Z,9.53
2019-01-02T18:03:19.727Z,8.00
2019-01-02T18:05:46.024Z,15.73
2019-01-02T18:08:12.289Z,9.10
2019-01-02T18:10:38.442Z,7.63
2019-01-02T18:13:04.653Z,9.20
2019-01-02T18:15:30.811Z,15.37
2019-01-02T18:17:57.111Z,7.37
2019-01-02T18:20:23.319Z,7.53
2019-01-02T18:22:49.467Z,6.60
2019-01-02T18:25:15.627Z,12.23
2019-01-02T18:27:41.915Z,13.37
2019-01-02T18:33:22.227Z,11.63
2019-01-02T18:35:48.376Z,7.87
2019-01-02T18:38:14.540Z,7.73
2019-01-02T18:40:40.724Z,7.70
2019-01-02T18:43:06.931Z,6.73
2019-01-02T18:45:33.368Z,12.10
2019-01-02T18:48:32.447Z,11.53
2019-01-02T18:50:58.604Z,7.27
2019-01-02T18:53:24.758Z,7.03
2019-01-02T18:55:50.953Z,6.50
2019-01-02T18:58:17.248Z,15.03
2019-01-02T19:00:43.416Z,7.43
2019-01-02T19:03:09.598Z,8.03
2019-01-02T19:05:35.765Z,6.90
2019-01-02T19:08:01.930Z,16.80
2019-01-02T19:10:28.113Z,15.37
2019-01-02T19:12:54.263Z,6.43
2019-01-02T19:15:20.420Z,8.43
2019-01-02T19:17:46.614Z,9.43
2019-01-02T19:20:12.762Z,20.73
2019-01-02T19:22:38.912Z,8.43
2019-01-02T19:25:05.133Z,10.90
2019-01-02T19:27:31.399Z,16.57
2019-01-02T19:29:57.558Z,9.13
2019-01-02T19:32:23.752Z,17.13
2019-01-02T19:34:50.012Z,24.77
2019-01-02T19:37:16.178Z,11.03
2019-01-02T19:39:42.376Z,13.90
2019-01-02T19:42:08.526Z,33.00
2019-01-02T19:44:34.681Z,13.37
2019-01-02T19:47:00.866Z,8.23
2019-01-02T19:49:27.031Z,14.97
2019-01-02T19:51:53.185Z,5.73
2019-01-02T19:54:19.475Z,7.80
2019-01-02T19:56:45.628Z,5.20
2019-01-02T19:59:11.786Z,6.30
2019-01-02T20:01:37.977Z,7.03
2019-01-02T20:04:04.198Z,7.97
2019-01-02T20:06:30.344Z,6.93
2019-01-02T20:08:56.635Z,6.80
2019-01-02T20:11:22.816Z,5.73
2019-01-02T20:13:48.972Z,5.43
2019-01-02T20:16:15.163Z,6.40
2019-01-02T20:18:41.322Z,6.57
2019-01-02T20:21:07.476Z,6.17
2019-01-02T20:23:33.685Z,5.30
2019-01-02T20:25:59.836Z,4.40
2019-01-02T20:28:25.992Z,4.93
2019-01-02T20:31:33.607Z,6.27
2019-01-02T20:33:59.924Z,7.60
2019-01-02T20:36:26.217Z,5.23
2019-01-02T20:38:52.434Z,5.70
2019-01-02T20:44:10.846Z,5.03
2019-01-02T20:46:37.105Z,6.57
2019-01-02T20:49:03.911Z,5.87
2019-01-02T20:51:30.231Z,4.97
2019-01-02T20:53:56.413Z,3.93
2019-01-02T20:56:22.594Z,4.47
2019-01-02T20:58:48.791Z,7.10
2019-01-02T21:01:14.947Z,10.33
2019-01-02T21:03:41.208Z,4.10
2019-01-02T21:06:07.417Z,8.40
2019-01-02T21:08:33.575Z,5.53
2019-01-02T21:10:59.738Z,6.87
2019-01-02T21:13:25.929Z,6.87
2019-01-02T21:15:52.083Z,4.40
2019-01-02T21:18:18.240Z,6.30
2019-01-02T21:20:44.530Z,8.60
2019-01-02T21:23:10.693Z,7.53
2019-01-02T21:25:36.848Z,9.17
2019-01-02T21:28:03.033Z,5.77
2019-01-02T21:30:29.189Z,7.17
2019-01-02T21:32:55.343Z,6.00
2019-01-02T21:35:21.535Z,7.10
2019-01-02T21:37:47.683Z,5.03
2019-01-02T21:40:13.840Z,6.80
2019-01-02T21:42:40.021Z,4.50
2019-01-02T21:45:06.213Z,5.80
2019-01-02T21:47:32.373Z,8.50
2019-01-02T21:49:58.570Z,4.30
2019-01-02T21:52:24.729Z,4.87
2019-01-02T21:54:50.887Z,3.77
2019-01-02T21:57:17.073Z,4.30
2019-01-02T21:59:43.229Z,4.60
2019-01-02T22:02:09.383Z,5.50
2019-01-02T22:04:35.576Z,3.83
2019-01-02T22:07:01.745Z,6.57
2019-01-02T22:09:27.905Z,5.10
2019-01-02T22:11:54.093Z,6.30
2019-01-02T22:14:20.249Z,3.53
2019-01-02T22:16:46.395Z,5.00
2019-01-02T22:19:12.580Z,2.83
2019-01-02T22:21:38.733Z,2.73
2019-01-02T22:24:04.889Z,3.90
2019-01-02T22:26:31.080Z,4.77
2019-01-02T22:28:57.239Z,4.23
2019-01-02T22:31:23.403Z,4.83
2019-01-02T22:33:49.580Z,3.40
2019-01-02T22:36:15.732Z,3.37
2019-01-02T22:38:41.993Z,3.13
2019-01-02T22:41:08.178Z,3.73
2019-01-02T22:43:34.342Z,4.27
2019-01-02T22:46:00.502Z,3.60
2019-01-02T22:48:26.690Z,5.50
2019-01-02T22:50:52.847Z,6.33
2019-01-02T22:53:19.011Z,4.33
2019-01-02T22:55:45.206Z,3.93
2019-01-02T22:58:11.362Z,4.03
2019-01-02T23:00:57.422Z,4.53
2019-01-02T23:03:43.460Z,4.67
2019-01-02T23:06:29.517Z,3.67
2019-01-02T23:09:15.523Z,5.53
2019-01-02T23:12:01.612Z,3.67
2019-01-02T23:14:47.618Z,4.47
2019-01-02T23:17:33.685Z,2.80
2019-01-02T23:20:19.714Z,3.57
2019-01-02T23:23:05.755Z,4.17
2019-01-02T23:25:51.764Z,3.53
2019-01-02T23:31:15.120Z,3.93
2019-01-02T23:34:01.129Z,3.57
2019-01-02T23:39:20.994Z,3.73
2019-01-02T23:42:07.012Z,3.53
2019-01-02T23:44:53.090Z,4.00
2019-01-02T23:47:39.097Z,3.87
2019-01-02T23:52:59.191Z,3.80
2019-01-02T23:55:45.212Z,3.47
2019-01-02T23:59:27.165Z,3.53
